Time;durP1;ratioP1;P1;durP2;ratioP2;P2;SDS_P1;SDS_P2;PMS_P1;PMS_P2;Temp;Humidity;BMP_temperature;BMP_pressure;BME280_temperature;BME280_humidity;BME280_pressure;Samples;Min_cycle;Max_cycle;Signal;HPM_P1;HPM_P2
2021/10/20 00:00:22;;;;;;;8.33;6.10;;;;;;;15.25;72.17;101046.09;4976535;28;20026;-68
2021/10/20 00:02:49;;;;;;;9.47;6.83;;;;;;;15.19;72.56;101033.72;4976926;28;20068;-68
2021/10/20 00:05:16;;;;;;;11.57;6.97;;;;;;;15.12;72.29;101037.16;4976040;28;20301;-69
2021/10/20 00:07:42;;;;;;;9.13;7.30;;;;;;;15.17;72.11;101022.28;4972558;28;20020;-68
2021/10/20 00:10:07;;;;;;;8.60;6.83;;;;;;;15.20;71.47;101024.09;4972962;28;20035;-68
2021/10/20 00:12:33;;;;;;;10.57;8.00;;;;;;;15.21;71.93;101010.88;4978525;28;20063;-69
2021/10/20 00:14:59;;;;;;;9.33;7.07;;;;;;;15.17;72.06;101010.84;4977536;28;20030;-68
2021/10/20 00:17:24;;;;;;;11.23;7.73;;;;;;;15.13;71.89;101004.63;4980572;28;20023;-69
2021/10/20 00:19:55;;;;;;;11.23;6.90;;;;;;;15.16;71.55;101007.34;4979761;28;20038;-67
2021/10/20 00:22:20;;;;;;;9.53;7.20;;;;;;;15.19;70.78;101003.84;4980523;28;20027;-68
2021/10/20 00:24:45;;;;;;;8.90;6.60;;;;;;;15.18;71.05;100995.03;4979936;28;20102;-67
2021/10/20 00:27:11;;;;;;;8.63;6.37;;;;;;;15.18;71.27;100997.69;4979932;28;20033;-68
2021/10/20 00:29:36;;;;;;;10.67;7.03;;;;;;;15.15;71.33;100992.38;4976029;28;20077;-68
2021/10/20 00:32:02;;;;;;;10.50;7.73;;;;;;;15.15;70.73;100987.09;4979688;28;20044;-70
2021/10/20 00:34:27;;;;;;;9.03;7.43;;;;;;;15.27;70.04;100985.47;4979851;28;20094;-69
2021/10/20 00:36:52;;;;;;;9.03;7.60;;;;;;;15.23;70.65;100980.16;4978765;28;20440;-69
2021/10/20 00:39:18;;;;;;;8.87;7.23;;;;;;;15.24;70.47;100983.66;4975942;28;20062;-69
2021/10/20 00:41:43;;;;;;;10.30;8.20;;;;;;;15.24;70.88;100974.03;4975962;28;20043;-69
2021/10/20 00:44:09;;;;;;;9.93;7.10;;;;;;;15.24;70.53;100967.84;4978531;28;20423;-68
2021/10/20 00:46:34;;;;;;;11.03;8.37;;;;;;;15.24;70.16;100973.13;4979436;28;20042;-69
2021/10/20 00:49:00;;;;;;;11.47;7.50;;;;;;;15.19;70.45;100973.06;4978983;28;20019;-70
2021/10/20 00:51:25;;;;;;;9.13;7.37;;;;;;;15.18;70.22;100979.22;4979926;28;20113;-71
2021/10/20 00:53:58;;;;;;;11.03;8.10;;;;;;;15.17;70.05;100972.19;4979192;28;20034;-69
2021/10/20 00:56:24;;;;;;;10.17;7.80;;;;;;;15.20;69.88;100973.97;4980406;28;20031;-68
2021/10/20 00:58:50;;;;;;;12.73;9.47;;;;;;;15.25;69.32;100964.34;4980212;28;20408;-68
2021/10/20 01:01:16;;;;;;;15.30;9.80;;;;;;;15.29;69.02;100960.88;4975590;28;20043;-69
2021/10/20 01:03:45;;;;;;;12.83;9.17;;;;;;;15.29;68.71;100963.50;4964256;28;20117;-69
2021/10/20 01:06:11;;;;;;;11.80;8.70;;;;;;;15.33;68.28;100956.53;4974060;28;20041;-64
2021/10/20 01:08:37;;;;;;;15.13;9.80;;;;;;;15.33;68.99;100944.19;4980479;28;20029;-70
2021/10/20 01:11:03;;;;;;;15.70;9.63;;;;;;;15.30;68.65;100933.63;4979703;28;20030;-70
2021/10/20 01:13:29;;;;;;;14.40;9.97;;;;;;;15.31;68.51;100937.16;4963055;28;20382;-68
2021/10/20 01:15:57;;;;;;;12.00;9.67;;;;;;;15.29;68.66;100938.88;4980575;28;20042;-68
2021/10/20 01:18:23;;;;;;;16.93;10.17;;;;;;;15.24;69.27;100957.28;4979200;28;20031;-70
2021/10/20 01:20:51;;;;;;;14.63;9.47;;;;;;;15.24;68.72;100950.28;4978639;28;20438;-68
2021/10/20 01:23:20;;;;;;;11.93;9.13;;;;;;;15.25;68.80;100944.13;4979025;28;20110;-69
2021/10/20 01:25:46;;;;;;;10.47;9.37;;;;;;;15.25;68.38;100941.50;4979522;28;20046;-67
2021/10/20 01:28:12;;;;;;;14.43;9.33;;;;;;;15.28;68.47;100939.75;4979180;28;20046;-67
2021/10/20 01:30:37;;;;;;;13.17;9.93;;;;;;;15.28;68.57;100931.84;4977145;28;20049;-70
2021/10/20 01:33:02;;;;;;;12.90;9.40;;;;;;;15.26;68.26;100934.47;4960874;28;20038;-70
2021/10/20 01:35:28;;;;;;;12.33;9.87;;;;;;;15.29;67.82;100930.97;4969376;28;20289;-70
2021/10/20 01:37:53;;;;;;;16.90;10.03;;;;;;;15.23;68.45;100937.06;4979794;28;20045;-68
2021/10/20 01:40:18;;;;;;;13.60;9.87;;;;;;;15.16;68.67;100929.94;4979440;28;20030;-69
2021/10/20 01:42:44;;;;;;;12.90;10.33;;;;;;;15.15;68.53;100928.19;4980206;28;20031;-69
2021/10/20 01:45:13;;;;;;;13.07;9.50;;;;;;;15.14;69.19;100934.34;4979474;28;20109;-68
2021/10/20 01:47:39;;;;;;;15.73;10.07;;;;;;;15.11;68.35;100925.53;4979384;28;20038;-70
2021/10/20 01:50:07;;;;;;;13.00;9.70;;;;;;;15.11;68.73;100930.81;4978859;28;20042;-68
2021/10/20 01:52:32;;;;;;;13.90;9.57;;;;;;;15.14;68.16;100918.50;4980331;28;20408;-69
2021/10/20 01:54:57;;;;;;;16.67;10.53;;;;;;;15.17;68.55;100910.63;4979277;28;20033;-68
2021/10/20 01:57:23;;;;;;;15.00;10.13;;;;;;;15.15;68.25;100905.34;4979806;28;20109;-68
2021/10/20 01:59:48;;;;;;;14.97;9.87;;;;;;;15.13;68.64;100904.41;4978784;28;20035;-68
2021/10/20 02:02:20;;;;;;;13.77;9.10;;;;;;;15.17;67.94;100886.88;4979703;28;20153;-67
2021/10/20 02:04:46;;;;;;;12.23;9.63;;;;;;;15.19;68.11;100888.66;4979296;28;20499;-69
2021/10/20 02:07:12;;;;;;;13.63;10.13;;;;;;;15.21;67.20;100878.16;4979601;28;20104;-69
2021/10/20 02:09:37;;;;;;;12.30;9.53;;;;;;;15.18;67.63;100879.00;4978937;28;20161;-69
2021/10/20 02:12:03;;;;;;;12.90;9.60;;;;;;;15.16;67.24;100879.84;4979294;28;20337;-69
2021/10/20 02:14:28;;;;;;;10.80;9.13;;;;;;;15.17;67.54;100863.16;4979310;28;20274;-70
2021/10/20 02:16:54;;;;;;;13.77;10.00;;;;;;;15.18;66.93;100857.03;4978598;28;20037;-70
2021/10/20 02:19:19;;;;;;;11.70;9.27;;;;;;;15.19;66.84;100864.94;4978769;28;20038;-68
2021/10/20 02:21:45;;;;;;;18.53;9.27;;;;;;;15.16;67.26;100864.91;4977927;28;20437;-67
2021/10/20 02:24:10;;;;;;;18.00;10.03;;;;;;;15.09;67.39;100863.09;4977962;28;20707;-68
2021/10/20 02:26:35;;;;;;;11.47;9.20;;;;;;;15.13;66.51;100859.59;4979237;28;20026;-69
2021/10/20 02:29:01;;;;;;;13.27;9.80;;;;;;;15.13;67.06;100851.69;4978307;28;20022;-67
2021/10/20 02:31:26;;;;;;;12.57;9.83;;;;;;;15.15;66.13;100844.69;4979191;28;20091;-68
2021/10/20 02:33:55;;;;;;;12.23;10.03;;;;;;;15.12;66.63;100836.72;4974925;28;20041;-69
2021/10/20 02:36:20;;;;;;;12.07;8.77;;;;;;;15.18;66.38;100843.84;4959810;28;20039;-69
2021/10/20 02:38:45;;;;;;;13.87;9.07;;;;;;;15.16;66.59;100842.91;4978495;28;20270;-68
2021/10/20 02:41:11;;;;;;;13.57;9.33;;;;;;;15.15;65.96;100834.13;4977383;28;20038;-69
2021/10/20 02:43:37;;;;;;;14.47;10.80;;;;;;;15.15;66.50;100831.50;4978187;28;20081;-67
2021/10/20 02:46:03;;;;;;;12.53;8.80;;;;;;;15.14;66.86;100823.56;4978686;28;20097;-68
2021/10/20 02:48:30;;;;;;;15.27;9.67;;;;;;;15.07;67.12;100838.47;4977880;28;20314;-68
2021/10/20 02:50:55;;;;;;;14.00;9.80;;;;;;;15.08;66.65;100812.09;4974511;28;20427;-69
2021/10/20 02:53:20;;;;;;;15.77;9.30;;;;;;;15.05;66.42;100811.16;4966481;28;20106;-71
2021/10/20 02:55:46;;;;;;;11.90;9.33;;;;;;;15.04;67.08;100819.94;4978320;28;20034;-69
2021/10/20 02:58:11;;;;;;;14.73;10.10;;;;;;;15.01;67.17;100809.38;4977263;28;20038;-70
2021/10/20 03:00:36;;;;;;;14.57;10.30;;;;;;;15.00;66.82;100797.06;4977821;28;20101;-69
2021/10/20 03:03:02;;;;;;;12.87;10.50;;;;;;;15.02;66.93;100793.59;4978519;28;20105;-69
2021/10/20 03:05:27;;;;;;;12.70;10.00;;;;;;;15.09;65.67;100805.06;4978457;28;20061;-68
2021/10/20 03:07:54;;;;;;;14.23;9.93;;;;;;;15.14;66.50;100789.28;4978509;28;20401;-70
2021/10/20 03:10:20;;;;;;;14.13;10.40;;;;;;;15.10;66.64;100797.19;4977942;28;20402;-68
2021/10/20 03:12:45;;;;;;;16.10;10.57;;;;;;;15.09;66.39;100791.88;4978495;28;20080;-69
2021/10/20 03:15:11;;;;;;;13.67;9.67;;;;;;;15.11;66.00;100787.50;4977756;28;20109;-66
2021/10/20 03:17:37;;;;;;;15.63;11.57;;;;;;;15.14;66.07;100782.28;4977442;28;20149;-69
2021/10/20 03:20:08;;;;;;;15.87;11.70;;;;;;;15.13;65.99;100793.66;4977427;28;20127;-70
2021/10/20 03:22:39;;;;;;;20.87;11.80;;;;;;;15.14;65.99;100781.38;4976976;28;20038;-69
2021/10/20 03:25:06;;;;;;;16.30;10.87;;;;;;;15.13;65.93;100769.94;4985691;28;20066;-72
2021/10/20 03:27:31;;;;;;;16.53;11.03;;;;;;;15.15;65.46;100778.75;4961751;28;20019;-70
2021/10/20 03:29:56;;;;;;;17.00;11.43;;;;;;;15.21;64.94;100780.56;4977430;28;20026;-68
2021/10/20 03:32:22;;;;;;;18.57;11.63;;;;;;;15.28;64.89;100782.38;4978346;28;20026;-67
2021/10/20 03:34:47;;;;;;;17.70;11.63;;;;;;;15.28;64.95;100781.47;4977922;28;20074;-68
2021/10/20 03:37:12;;;;;;;17.23;11.90;;;;;;;15.28;65.82;100776.19;4978141;28;20018;-68
2021/10/20 03:39:38;;;;;;;15.53;10.73;;;;;;;15.27;65.17;100771.81;4977331;28;20038;-68
2021/10/20 03:42:03;;;;;;;14.50;11.10;;;;;;;15.28;64.95;100771.81;4977680;28;20035;-68
2021/10/20 03:44:31;;;;;;;14.93;10.87;;;;;;;15.31;64.61;100768.34;4977527;28;20397;-69
2021/10/20 03:46:56;;;;;;;13.07;10.27;;;;;;;15.31;65.55;100763.06;4978241;28;20043;-67
2021/10/20 03:49:22;;;;;;;13.17;10.17;;;;;;;15.31;64.49;100760.41;4981353;28;20070;-70
2021/10/20 03:51:47;;;;;;;14.30;10.03;;;;;;;15.31;64.97;100763.06;4978047;28;20031;-69
2021/10/20 03:54:12;;;;;;;12.13;9.83;;;;;;;15.29;65.36;100759.50;4974566;28;20493;-70
2021/10/20 03:56:38;;;;;;;13.63;9.83;;;;;;;15.30;65.77;100762.16;4982428;28;20092;-70
2021/10/20 03:59:03;;;;;;;12.87;10.67;;;;;;;15.28;65.73;100747.19;4981101;28;20058;-70
2021/10/20 04:01:29;;;;;;;14.73;10.60;;;;;;;15.25;65.80;100754.22;4981215;28;20034;-68
2021/10/20 04:03:54;;;;;;;13.63;10.17;;;;;;;15.28;66.18;100734.00;4977133;28;20031;-68
2021/10/20 04:06:19;;;;;;;13.47;10.17;;;;;;;15.31;65.80;100728.75;4962661;28;20114;-70
2021/10/20 04:08:46;;;;;;;19.97;9.63;;;;;;;15.28;65.81;100729.63;4965386;28;20398;-70
2021/10/20 04:11:12;;;;;;;15.60;10.27;;;;;;;15.29;65.92;100730.47;4980387;28;20085;-68
2021/10/20 04:13:37;;;;;;;15.10;10.47;;;;;;;15.30;66.48;100733.16;4980593;28;20027;-67
2021/10/20 04:16:03;;;;;;;15.30;10.10;;;;;;;15.30;66.27;100719.97;4980474;28;20072;-68
2021/10/20 04:18:28;;;;;;;14.00;10.47;;;;;;;15.27;66.31;100716.41;4981468;28;20019;-67
2021/10/20 04:20:53;;;;;;;11.27;9.20;;;;;;;15.32;66.54;100730.53;4978605;28;20035;-70
2021/10/20 04:23:19;;;;;;;15.37;11.00;;;;;;;15.33;66.80;100714.69;4980290;28;20594;-68
2021/10/20 04:25:44;;;;;;;18.23;9.40;;;;;;;15.32;66.68;100701.50;4981074;28;20129;-67
2021/10/20 04:28:10;;;;;;;11.73;9.20;;;;;;;15.36;66.24;100708.56;4980702;28;20057;-64
2021/10/20 04:30:36;;;;;;;15.37;9.60;;;;;;;15.43;65.99;100705.09;4977274;28;20030;-68
2021/10/20 04:33:01;;;;;;;15.33;11.10;;;;;;;15.41;67.07;100698.91;4969438;28;20034;-66
2021/10/20 04:35:26;;;;;;;14.70;10.10;;;;;;;15.35;67.82;100709.44;4980782;28;20058;-69
2021/10/20 04:37:52;;;;;;;18.17;11.37;;;;;;;15.29;69.38;100719.94;4981178;28;20031;-65
2021/10/20 04:40:17;;;;;;;13.70;10.30;;;;;;;15.16;70.44;100711.06;4980313;28;20042;-65
2021/10/20 04:42:42;;;;;;;14.23;10.03;;;;;;;15.05;71.78;100711.88;4961115;29;20059;-65
2021/10/20 04:45:08;;;;;;;14.57;11.03;;;;;;;14.89;73.69;100716.13;4954097;28;20031;-65
2021/10/20 04:47:34;;;;;;;15.63;12.00;;;;;;;14.74;73.56;100716.00;4962110;28;20019;-67
2021/10/20 04:50:00;;;;;;;16.03;11.83;;;;;;;14.62;75.04;100719.38;4974529;28;20046;-65
2021/10/20 04:52:26;;;;;;;19.63;11.87;;;;;;;14.51;75.14;100717.50;4981241;28;20182;-68
2021/10/20 04:54:52;;;;;;;16.33;11.47;;;;;;;14.39;76.12;100714.75;4980351;28;20105;-67
2021/10/20 04:57:18;;;;;;;16.23;12.40;;;;;;;14.28;76.72;100712.00;4980237;28;20356;-66
2021/10/20 04:59:44;;;;;;;19.00;12.83;;;;;;;14.18;77.52;100703.09;4979392;28;20130;-67
2021/10/20 05:02:09;;;;;;;17.57;13.53;;;;;;;14.11;77.37;100702.16;4980261;28;20125;-66
2021/10/20 05:04:34;;;;;;;18.53;12.97;;;;;;;14.06;77.82;100706.47;4980787;28;20297;-67
2021/10/20 05:07:00;;;;;;;19.97;14.00;;;;;;;14.04;78.00;100707.31;4979589;28;20121;-66
2021/10/20 05:09:25;;;;;;;23.23;13.57;;;;;;;14.01;78.25;100700.28;4980433;28;20034;-64
2021/10/20 05:11:51;;;;;;;19.40;12.93;;;;;;;14.04;78.28;100702.97;4980259;28;20063;-66
2021/10/20 05:14:16;;;;;;;19.13;13.30;;;;;;;14.09;77.49;100685.47;4979554;28;20322;-65
2021/10/20 05:16:42;;;;;;;19.80;11.87;;;;;;;14.08;77.71;100672.28;4979650;28;20042;-64
2021/10/20 05:19:08;;;;;;;15.23;11.80;;;;;;;14.07;77.46;100666.13;4979769;28;20046;-64
2021/10/20 05:21:33;;;;;;;18.77;12.30;;;;;;;14.13;77.52;100675.88;4963746;28;20018;-64
2021/10/20 05:23:58;;;;;;;16.70;11.87;;;;;;;14.11;76.84;100667.94;4979125;28;20121;-65
2021/10/20 05:26:24;;;;;;;15.93;11.23;;;;;;;14.15;76.70;100656.56;4980429;28;20077;-65
2021/10/20 05:28:49;;;;;;;18.60;12.87;;;;;;;14.18;77.09;100658.34;4979514;28;20043;-65
2021/10/20 05:31:15;;;;;;;18.70;11.93;;;;;;;14.18;76.67;100650.44;4978665;28;20038;-65
2021/10/20 05:33:40;;;;;;;16.07;10.60;;;;;;;14.21;76.31;100650.50;4979452;28;20045;-65
2021/10/20 05:36:08;;;;;;;14.93;11.37;;;;;;;14.21;77.16;100652.22;4981160;28;20054;-65
2021/10/20 05:38:33;;;;;;;17.27;11.30;;;;;;;14.22;76.66;100639.09;4980282;28;20022;-66
2021/10/20 05:40:58;;;;;;;18.97;11.57;;;;;;;14.20;77.18;100638.16;4979453;28;20070;-65
2021/10/20 05:43:24;;;;;;;16.70;9.77;;;;;;;14.30;76.25;100625.97;4979326;28;20026;-64
2021/10/20 05:45:49;;;;;;;17.90;11.43;;;;;;;14.31;76.64;100614.56;4980353;28;20053;-65
2021/10/20 05:48:15;;;;;;;16.67;10.20;;;;;;;14.37;76.27;100596.19;4979110;28;20114;-65
2021/10/20 05:50:42;;;;;;;17.47;11.50;;;;;;;14.39;76.78;100591.81;4979977;28;20042;-65
2021/10/20 05:53:07;;;;;;;16.67;10.73;;;;;;;14.39;76.84;100598.84;4978883;28;20037;-65
2021/10/20 05:55:32;;;;;;;15.60;10.83;;;;;;;14.38;77.31;100586.56;4979422;28;20035;-65
2021/10/20 05:57:58;;;;;;;17.50;11.90;;;;;;;14.40;76.97;100593.56;4979369;28;20031;-66
2021/10/20 06:00:23;;;;;;;15.97;11.27;;;;;;;14.41;77.10;100587.47;4980148;28;20297;-65
2021/10/20 06:02:51;;;;;;;13.10;10.17;;;;;;;14.41;76.99;100582.19;4963132;28;20026;-65
2021/10/20 06:05:16;;;;;;;14.30;11.07;;;;;;;14.48;76.51;100580.50;4979065;28;20114;-65
2021/10/20 06:07:44;;;;;;;17.37;9.63;;;;;;;14.53;76.91;100568.25;4979825;28;20106;-64
2021/10/20 06:10:10;;;;;;;15.83;11.10;;;;;;;14.58;76.79;100589.34;4977749;28;20094;-65
2021/10/20 06:12:36;;;;;;;16.33;10.83;;;;;;;14.63;76.29;100573.59;4979780;28;20117;-64
2021/10/20 06:15:01;;;;;;;14.33;10.33;;;;;;;14.67;76.09;100563.06;4977711;28;20123;-64
2021/10/20 06:17:26;;;;;;;12.77;9.60;;;;;;;14.72;75.18;100563.09;4979126;28;20294;-68
2021/10/20 06:19:52;;;;;;;13.53;9.23;;;;;;;14.73;74.14;100550.78;4978821;28;20274;-68
2021/10/20 06:22:17;;;;;;;11.30;9.07;;;;;;;14.73;74.32;100550.78;4978668;28;20376;-67
2021/10/20 06:24:43;;;;;;;12.63;9.47;;;;;;;14.72;74.53;100563.09;4979484;28;20042;-66
2021/10/20 06:27:08;;;;;;;10.90;8.90;;;;;;;14.73;74.21;100574.50;4978734;28;20089;-66
2021/10/20 06:29:33;;;;;;;12.17;8.73;;;;;;;14.72;74.54;100568.38;4978998;28;20042;-68
2021/10/20 06:31:59;;;;;;;12.47;7.87;;;;;;;14.72;74.42;100556.94;4979099;28;20035;-65
2021/10/20 06:34:24;;;;;;;13.40;9.13;;;;;;;14.70;74.58;100563.09;4978404;28;20278;-63
2021/10/20 06:36:50;;;;;;;12.53;8.30;;;;;;;14.64;75.63;100575.34;4979444;28;20297;-64
2021/10/20 06:39:20;;;;;;;13.20;9.50;;;;;;;14.56;76.99;100584.06;4978759;28;20046;-66
2021/10/20 06:41:46;;;;;;;19.03;9.97;;;;;;;14.45;77.30;100574.31;4978744;28;20066;-66
2021/10/20 06:44:11;;;;;;;13.27;8.60;;;;;;;14.37;77.52;100567.22;4961382;28;20109;-67
2021/10/20 06:46:36;;;;;;;13.80;9.37;;;;;;;14.27;78.12;100565.41;4979084;28;20321;-66
2021/10/20 06:49:02;;;;;;;11.97;8.77;;;;;;;14.13;79.29;100549.47;4978512;28;20038;-66
2021/10/20 06:51:27;;;;;;;11.80;9.13;;;;;;;14.05;79.55;100545.88;4979020;28;20077;-68
2021/10/20 06:53:52;;;;;;;20.90;8.73;;;;;;;13.98;80.09;100530.03;4977974;28;20058;-67
2021/10/20 06:56:18;;;;;;;11.23;8.37;;;;;;;13.92;80.23;100518.56;4978640;28;20031;-68
2021/10/20 06:58:43;;;;;;;15.47;9.03;;;;;;;13.92;79.96;100495.75;4978685;28;20360;-67
2021/10/20 07:01:08;;;;;;;12.80;9.20;;;;;;;13.84;80.72;100500.06;4977861;28;20042;-68
2021/10/20 07:03:34;;;;;;;10.10;8.50;;;;;;;13.79;80.89;100504.41;4978484;28;20329;-68
2021/10/20 07:05:59;;;;;;;12.50;8.93;;;;;;;13.72;81.22;100477.16;4978699;28;20038;-69
2021/10/20 07:08:24;;;;;;;11.67;9.00;;;;;;;13.68;81.59;100460.44;4977728;28;20267;-69
2021/10/20 07:10:50;;;;;;;13.77;9.80;;;;;;;13.67;81.49;100442.00;4979055;28;20066;-68
2021/10/20 07:13:16;;;;;;;12.93;10.00;;;;;;;13.64;82.02;100418.31;4977709;28;20049;-69
2021/10/20 07:15:41;;;;;;;13.27;10.53;;;;;;;13.61;82.17;100403.38;4978872;28;20031;-67
2021/10/20 07:18:07;;;;;;;13.07;9.40;;;;;;;13.62;81.62;100404.28;4977103;28;20023;-68
2021/10/20 07:20:32;;;;;;;12.27;10.07;;;;;;;13.60;82.05;100401.63;4977693;28;20047;-69
2021/10/20 07:22:57;;;;;;;13.27;10.30;;;;;;;13.59;82.44;100399.88;4977529;28;20160;-69
2021/10/20 07:25:23;;;;;;;11.37;9.03;;;;;;;13.57;82.17;100404.25;4978232;28;20106;-68
2021/10/20 07:27:49;;;;;;;11.23;9.17;;;;;;;13.55;82.32;100416.47;4977290;28;20039;-68
2021/10/20 07:30:15;;;;;;;16.17;9.90;;;;;;;13.52;82.73;100425.22;4959482;28;20046;-70
2021/10/20 07:32:41;;;;;;;16.57;10.57;;;;;;;13.52;82.91;100427.84;4976634;28;20035;-67
2021/10/20 07:35:08;;;;;;;12.60;9.30;;;;;;;13.52;82.85;100412.06;4977179;28;20489;-66
2021/10/20 07:37:33;;;;;;;15.17;9.93;;;;;;;13.54;82.85;100423.50;4977841;28;20130;-66
2021/10/20 07:39:59;;;;;;;15.10;10.43;;;;;;;13.58;82.67;100425.28;4977224;28;20088;-69
2021/10/20 07:42:24;;;;;;;13.87;9.27;;;;;;;13.59;82.69;100413.03;4977511;28;20043;-65
2021/10/20 07:44:50;;;;;;;12.53;9.47;;;;;;;13.59;82.61;100424.41;4977511;28;20049;-66
2021/10/20 07:47:16;;;;;;;11.27;8.87;;;;;;;13.60;82.46;100428.78;4976306;28;20034;-66
2021/10/20 07:49:41;;;;;;;11.53;9.20;;;;;;;13.62;82.41;100410.41;4977502;28;20117;-67
2021/10/20 07:52:06;;;;;;;11.47;8.00;;;;;;;13.66;82.39;100420.09;4977148;28;20050;-67
2021/10/20 07:54:32;;;;;;;10.13;8.87;;;;;;;13.72;82.23;100425.38;4977239;28;20046;-67
2021/10/20 07:56:58;;;;;;;11.43;8.97;;;;;;;13.75;81.89;100429.81;4976723;28;20049;-68
2021/10/20 07:59:24;;;;;;;10.37;8.73;;;;;;;13.75;82.13;100437.69;4976339;28;20330;-67
2021/10/20 08:01:49;;;;;;;9.37;7.87;;;;;;;13.84;82.08;100442.16;4977446;28;20123;-67
2021/10/20 08:04:15;;;;;;;12.47;9.03;;;;;;;13.92;82.11;100444.84;4976421;28;20046;-65
2021/10/20 08:06:40;;;;;;;9.57;7.73;;;;;;;13.99;81.77;100441.41;4977638;28;20038;-65
2021/10/20 08:09:05;;;;;;;10.57;8.63;;;;;;;14.02;81.66;100441.44;4976863;28;20082;-65
2021/10/20 08:11:31;;;;;;;9.77;7.83;;;;;;;14.04;81.12;100441.44;4977494;28;20062;-65
2021/10/20 08:13:56;;;;;;;10.23;8.10;;;;;;;14.07;80.96;100437.06;4976598;28;20050;-64
2021/10/20 08:16:22;;;;;;;12.43;8.33;;;;;;;14.09;81.34;100429.19;4976857;28;20058;-65
2021/10/20 08:18:47;;;;;;;9.93;7.97;;;;;;;14.13;81.15;100434.50;4976875;28;20043;-65
2021/10/20 08:21:13;;;;;;;11.33;8.07;;;;;;;14.17;81.12;100429.25;4977089;28;20116;-64
2021/10/20 08:23:41;;;;;;;10.77;8.40;;;;;;;14.17;80.95;100429.25;4977121;28;20400;-65
2021/10/20 08:26:13;;;;;;;12.13;8.37;;;;;;;14.21;81.10;100417.88;4976323;28;20105;-63
2021/10/20 08:28:38;;;;;;;8.83;7.93;;;;;;;14.31;80.26;100424.97;4971682;28;20133;-65
2021/10/20 08:31:04;;;;;;;9.10;8.13;;;;;;;14.35;80.47;100426.75;4972882;28;20105;-65
2021/10/20 08:33:29;;;;;;;9.50;8.50;;;;;;;14.42;80.09;100430.28;4959512;28;20031;-64
2021/10/20 08:35:55;;;;;;;10.90;9.37;;;;;;;14.54;79.45;100413.69;4960544;28;20031;-68
2021/10/20 08:38:20;;;;;;;11.53;9.17;;;;;;;14.62;79.11;100413.72;4974553;28;20041;-66
2021/10/20 08:40:46;;;;;;;12.73;8.53;;;;;;;14.68;78.88;100408.47;4979784;28;20369;-65
2021/10/20 08:43:16;;;;;;;10.90;8.13;;;;;;;14.74;79.03;100397.13;4980100;28;20073;-67
2021/10/20 08:45:43;;;;;;;10.93;8.20;;;;;;;14.81;79.23;100388.34;4979137;28;20116;-67
2021/10/20 08:48:08;;;;;;;9.57;8.27;;;;;;;14.88;78.61;100389.25;4975885;28;20065;-66
2021/10/20 08:50:35;;;;;;;10.13;8.23;;;;;;;14.98;77.78;100388.41;4968738;28;20031;-67
2021/10/20 08:53:00;;;;;;;10.77;8.97;;;;;;;15.06;78.06;100402.50;4980120;28;20285;-66
2021/10/20 08:55:26;;;;;;;10.60;8.40;;;;;;;15.11;76.85;100413.94;4979790;28;20042;-65
2021/10/20 08:57:52;;;;;;;10.87;8.47;;;;;;;15.15;77.76;100400.75;4979559;28;20030;-67
2021/10/20 09:00:19;;;;;;;10.47;8.77;;;;;;;15.15;77.60;100395.47;4960330;28;20046;-66
2021/10/20 09:02:47;;;;;;;12.10;9.17;;;;;;;15.15;77.26;100408.66;4959999;28;20039;-69
2021/10/20 09:05:14;;;;;;;10.57;8.70;;;;;;;15.14;77.42;100391.09;4960691;28;20058;-66
2021/10/20 09:07:41;;;;;;;13.83;8.57;;;;;;;15.16;77.57;100392.84;4967365;28;20054;-67
2021/10/20 09:10:07;;;;;;;10.67;8.57;;;;;;;15.19;77.11;100378.81;4978586;28;20035;-69
2021/10/20 09:12:37;;;;;;;12.40;9.60;;;;;;;15.24;77.01;100379.66;4979988;28;20049;-67
2021/10/20 09:15:04;;;;;;;11.03;8.43;;;;;;;15.27;76.69;100382.34;4979350;28;20041;-66
2021/10/20 09:17:50;;;;;;;9.73;7.93;;;;;;;15.29;76.43;100364.75;4978424;28;20069;-67
2021/10/20 09:20:28;;;;;;;8.77;7.73;;;;;;;15.29;76.81;100369.13;4979647;28;20027;-64
2021/10/20 09:22:55;;;;;;;9.67;8.07;;;;;;;15.33;76.06;100357.72;4979684;28;20402;-65
2021/10/20 09:25:21;;;;;;;14.33;8.30;;;;;;;15.41;76.10;100365.63;4979737;28;20034;-66
2021/10/20 09:27:47;;;;;;;12.10;8.10;;;;;;;15.41;75.62;100358.59;4979753;28;20077;-66
2021/10/20 09:30:13;;;;;;;11.20;7.73;;;;;;;15.40;75.70;100375.31;4978083;28;20046;-69
2021/10/20 09:32:39;;;;;;;9.50;7.73;;;;;;;15.45;76.40;100370.91;4979685;28;20050;-67
2021/10/20 09:35:05;;;;;;;8.63;7.20;;;;;;;15.55;75.43;100352.47;4978877;28;20041;-67
2021/10/20 09:37:31;;;;;;;14.00;7.03;;;;;;;15.50;75.78;100369.16;4979628;28;20019;-73
2021/10/20 09:40:07;;;;;;;8.73;7.20;;;;;;;15.46;75.90;100367.41;4979143;28;20076;-70
2021/10/20 09:42:47;;;;;;;8.80;7.20;;;;;;;15.46;75.86;100370.06;4979150;28;20077;-67
2021/10/20 09:45:15;;;;;;;8.43;6.93;;;;;;;15.51;75.84;100372.69;4977887;28;20104;-66
2021/10/20 09:47:41;;;;;;;10.33;7.77;;;;;;;15.51;75.25;100370.06;4979439;28;20317;-69
2021/10/20 09:50:07;;;;;;;7.83;7.00;;;;;;;15.50;75.69;100370.94;4978879;28;20126;-68
2021/10/20 09:52:51;;;;;;;10.10;7.87;;;;;;;15.50;75.73;100361.25;4979548;28;20122;-67
2021/10/20 09:55:26;;;;;;;8.07;7.07;;;;;;;15.53;75.07;100382.34;4978865;28;20050;-66
2021/10/20 09:57:59;;;;;;;11.48;7.63;;;;;;;15.57;75.46;100374.44;4979176;28;20089;-65
2021/10/20 10:00:25;;;;;;;8.33;7.10;;;;;;;15.57;75.09;100361.25;4979393;28;20054;-66
2021/10/20 10:02:51;;;;;;;7.53;6.83;;;;;;;15.61;75.47;100337.50;4978535;28;20078;-67
2021/10/20 10:05:17;;;;;;;8.30;7.50;;;;;;;15.64;75.32;100365.66;4977939;28;20081;-68
2021/10/20 10:07:42;;;;;;;9.13;7.47;;;;;;;15.70;74.78;100355.09;4979027;28;20062;-71
2021/10/20 10:10:07;;;;;;;10.03;6.57;;;;;;;15.71;74.91;100362.13;4978428;28;20070;-68
2021/10/20 10:12:33;;;;;;;8.50;7.07;;;;;;;15.78;75.33;100361.25;4979166;28;20054;-68
2021/10/20 10:15:04;;;;;;;9.93;7.03;;;;;;;15.82;74.83;100359.50;4978287;28;20076;-68
2021/10/20 10:17:31;;;;;;;12.70;7.23;;;;;;;15.85;74.70;100363.84;4974252;28;20175;-68
2021/10/20 10:20:05;;;;;;;10.70;7.67;;;;;;;15.86;74.76;100357.69;4959168;28;20024;-69
2021/10/20 10:22:30;;;;;;;10.50;7.60;;;;;;;15.89;74.22;100365.63;4958894;28;20338;-68
2021/10/20 10:25:01;;;;;;;8.57;6.10;;;;;;;15.96;74.51;100377.97;4959284;29;20144;-72
2021/10/20 10:27:28;;;;;;;9.57;6.63;;;;;;;16.03;74.02;100379.72;4976540;28;20038;-72
2021/10/20 10:30:03;;;;;;;11.83;7.00;;;;;;;16.05;74.32;100359.47;4977182;28;20401;-68
2021/10/20 10:32:29;;;;;;;7.57;6.73;;;;;;;16.11;73.70;100365.63;4978073;28;20026;-70
2021/10/20 10:34:56;;;;;;;9.30;7.70;;;;;;;16.07;74.09;100394.66;4977466;28;20274;-69
2021/10/20 10:37:23;;;;;;;8.13;6.43;;;;;;;16.02;74.58;100363.88;4978376;28;20041;-71
2021/10/20 10:39:48;;;;;;;10.43;5.87;;;;;;;16.01;74.46;100362.97;4978450;28;20034;-69
2021/10/20 10:42:14;;;;;;;8.13;6.23;;;;;;;15.98;74.50;100375.31;4976919;28;20235;-68
2021/10/20 10:44:48;;;;;;;8.10;6.77;;;;;;;15.94;74.57;100353.34;4977416;28;20093;-69
2021/10/20 10:47:19;;;;;;;7.63;6.63;;;;;;;15.89;74.78;100366.50;4973244;28;20042;-69
2021/10/20 10:49:52;;;;;;;10.40;6.60;;;;;;;15.86;74.58;100353.31;4958932;28;20066;-67
2021/10/20 10:52:27;;;;;;;6.97;6.27;;;;;;;15.86;74.30;100374.44;4958680;28;20019;-68
2021/10/20 10:54:55;;;;;;;15.60;7.00;;;;;;;15.84;74.47;100356.81;4958835;28;20023;-71
2021/10/20 10:57:21;;;;;;;9.90;6.27;;;;;;;15.82;74.79;100355.94;4973754;28;20054;-66
2021/10/20 10:59:54;;;;;;;9.03;5.87;;;;;;;15.81;74.84;100357.69;4977464;28;20026;-68
2021/10/20 11:02:51;;;;;;;8.10;6.20;;;;;;;15.83;74.96;100361.25;4979047;28;20126;-68
2021/10/20 11:05:18;;;;;;;7.82;5.93;;;;;;;15.86;74.18;100352.41;4978107;28;20138;-68
2021/10/20 11:07:45;;;;;;;9.37;6.43;;;;;;;15.94;73.73;100348.06;4977176;28;20286;-69
2021/10/20 11:10:11;;;;;;;6.30;5.57;;;;;;;15.98;73.37;100349.81;4976551;28;20057;-69
2021/10/20 11:12:38;;;;;;;8.03;6.40;;;;;;;15.99;74.05;100345.41;4977690;28;20056;-67